Date,TemperatureHighF,TemperatureAvgF,TemperatureLowF,DewpointHighF,DewpointAvgF,DewpointLowF,HumidityHigh,HumidityAvg,HumidityLow,PressureMaxIn,PressureMinIn,WindSpeedMaxMPH,WindSpeedAvgMPH,GustSpeedMaxMPH,PrecipitationSumIn
2013-11-18,40,40,40,33,33,32,77,75,73,29.95,29.91,7,6,16,0.00
2013-11-19,42,36,30,28,26,25,82,68,53,30.42,30.34,4,1,5,0.00
2013-11-20,44,35,27,32,28,24,91,75,52,30.45,30.25,10,3,15,0.11
2013-11-21,46,42,38,44,40,32,97,91,78,30.30,30.18,11,3,15,0.07
2013-11-22,46,41,29,46,39,26,98,91,76,30.39,30.15,9,2,19,0.04
2013-11-23,32,26,19,28,19,10,92,76,52,30.58,30.31,11,4,21,0.00
2013-11-24,27,20,14,18,13,9,86,74,54,30.66,30.49,8,3,18,0.00
2013-11-25,31,26,19,26,19,13,87,74,57,30.50,30.15,14,8,23,0.00
2013-11-26,37,32,30,30,28,25,92,82,72,30.17,29.96,9,4,16,0.10
2013-11-27,30,26,19,26,17,12,83,70,56,30.25,29.93,14,6,19,0.00
2013-11-28,28,25,18,22,18,13,92,74,63,30.45,30.25,11,2,16,0.00
2013-11-29,34,28,24,24,21,19,87,75,58,30.68,30.46,6,1,7,0.05
2013-11-30,47,35,27,32,27,22,89,73,54,30.58,30.13,11,4,16,0.10
2013-12-1,47,37,30,38,31,26,92,79,65,30.13,29.99,8,1,12,0.07
2013-12-2,40,34,29,32,29,25,95,84,65,30.01,29.89,7,1,12,0.00
2013-12-3,42,36,31,39,34,27,95,90,81,29.92,29.84,9,2,12,0.03
2013-12-4,58,48,37,55,45,36,97,92,88,29.90,29.64,13,4,19,0.00
2013-12-5,60,43,31,56,37,24,91,79,72,30.17,29.63,11,5,23,0.01
2013-12-6,31,28,24,24,21,16,78,74,70,30.44,30.15,7,3,11,0.00
2013-12-7,26,22,14,18,14,10,84,72,59,30.66,30.44,7,2,15,0.00
2013-12-8,29,21,14,28,18,10,100,86,79,30.63,30.01,9,4,16,0.00
2013-12-9,29,26,20,28,22,13,96,85,75,30.17,29.94,11,5,18,0.00
2013-12-10,24,18,10,14,11,5,84,72,55,30.26,30.02,13,6,24,0.00
2013-12-11,25,19,9,21,14,5,92,82,74,30.51,30.26,7,4,13,0.00
2013-12-12,18,13,8,13,6,1,89,73,58,30.51,30.27,11,5,18,0.00
2013-12-13,29,19,15,22,13,9,81,77,73,30.30,30.22,6,3,10,0.00
2013-12-14,23,22,21,22,20,19,94,93,93,30.18,29.84,11,8,20,0.00
2013-12-15,24,20,14,22,17,10,93,88,82,30.10,29.86,10,5,19,0.00
2013-12-16,21,13,4,14,9,1,91,84,74,30.24,30.04,4,1,9,0.00
2013-12-17,25,21,15,22,19,13,93,91,89,30.07,29.96,11,4,18,0.00
2013-12-18,27,22,16,22,18,14,94,84,73,30.20,29.95,11,6,16,0.01
2013-12-19,41,36,27,36,30,19,92,81,69,30.02,29.91,8,3,16,0.02
2013-12-20,42,39,35,41,38,34,98,96,91,29.92,29.73,7,1,10,0.28
2013-12-21,43,36,33,43,36,32,98,98,97,29.87,29.61,14,3,21,0.40
2013-12-22,40,36,33,38,34,32,98,95,87,30.00,29.52,12,5,20,0.39
2013-12-23,34,30,19,34,25,13,99,82,73,30.36,30.00,7,4,14,0.11
2013-12-24,24,16,11,14,11,7,89,78,63,30.58,30.35,7,3,12,0.00
2013-12-25,26,22,14,24,18,11,91,87,79,30.55,30.16,12,7,18,0.00
2013-12-26,29,27,25,27,23,19,94,84,75,30.33,30.09,9,5,15,0.00
2013-12-27,41,35,28,34,30,24,92,83,73,30.35,30.14,12,5,20,0.09
2013-12-28,48,40,35,39,34,31,88,80,70,30.15,29.93,11,7,19,0.00
2013-12-29,45,36,25,36,31,19,92,80,69,30.03,29.71,10,5,16,0.01
2013-12-30,25,22,19,19,13,11,80,70,62,30.28,30.03,11,3,19,0.00
2013-12-31,21,18,16,15,12,10,89,80,70,30.38,30.13,10,5,19,0.00
2014-1-1,18,16,14,15,13,12,100,90,89,30.40,30.21,12,6,17,0.00
2014-1-2,16,14,6,14,11,-1,92,89,72,30.32,30.09,15,11,20,0.00